Time;durP1;ratioP1;P1;durP2;ratioP2;P2;SDS_P1;SDS_P2;PMS_P1;PMS_P2;Temp;Humidity;BMP_temperature;BMP_pressure;BME280_temperature;BME280_humidity;BME280_pressure;Samples;Min_cycle;Max_cycle;Signal;HPM_P1;HPM_P2
2021/04/12 00:02:21;;;;;;;8.18;2.28;;;3.00;79.30;;;;;;5114293;28;20403;-37
2021/04/12 00:04:53;;;;;;;8.80;2.72;;;3.00;78.90;;;;;;5106787;28;20081;-37
2021/04/12 00:07:42;;;;;;;3.97;2.55;;;3.00;79.00;;;;;;5115509;28;20027;-37
2021/04/12 00:10:26;;;;;;;5.35;2.80;;;3.00;79.10;;;;;;5108952;28;20040;-36
2021/04/12 00:13:01;;;;;;;5.30;2.30;;;2.90;79.10;;;;;;5115815;28;20020;-36
2021/04/12 00:15:32;;;;;;;3.35;2.22;;;2.80;79.40;;;;;;5115765;28;20059;-36
2021/04/12 00:18:05;;;;;;;9.68;3.22;;;2.80;79.80;;;;;;5115460;28;20092;-38
2021/04/12 00:20:57;;;;;;;8.48;2.65;;;2.90;79.20;;;;;;5115899;28;20467;-37
2021/04/12 00:23:37;;;;;;;7.28;2.50;;;2.80;80.10;;;;;;5115855;28;20019;-37
2021/04/12 00:26:23;;;;;;;4.53;2.23;;;2.80;79.70;;;;;;5115126;28;20012;-37
2021/04/12 00:29:11;;;;;;;5.43;3.08;;;2.90;79.20;;;;;;5113575;28;20273;-38
2021/04/12 00:31:48;;;;;;;9.73;2.80;;;2.80;79.50;;;;;;5114502;28;20102;-37
2021/04/12 00:34:31;;;;;;;9.93;2.97;;;2.80;79.40;;;;;;5114682;28;20024;-35
2021/04/12 00:37:04;;;;;;;5.85;2.70;;;2.80;79.50;;;;;;5114624;28;20034;-35
2021/04/12 00:39:36;;;;;;;3.53;2.95;;;2.70;80.00;;;;;;5114971;28;20095;-35
2021/04/12 00:42:40;;;;;;;4.55;2.55;;;2.70;79.70;;;;;;5114355;28;20028;-36
2021/04/12 00:45:48;;;;;;;4.50;2.20;;;2.60;80.00;;;;;;5114641;28;20020;-36
2021/04/12 00:48:50;;;;;;;4.55;2.45;;;2.70;79.80;;;;;;5114722;28;20027;-35
2021/04/12 00:51:42;;;;;;;6.93;3.53;;;2.70;79.90;;;;;;5114254;28;20081;-35
2021/04/12 00:54:35;;;;;;;7.20;2.60;;;2.60;80.10;;;;;;5114169;28;20023;-35
2021/04/12 00:57:14;;;;;;;3.90;2.10;;;2.40;80.40;;;;;;5114445;28;20032;-35
2021/04/12 01:00:05;;;;;;;4.75;3.00;;;2.50;80.50;;;;;;5114632;28;20076;-35
2021/04/12 01:02:43;;;;;;;6.55;3.10;;;2.50;80.20;;;;;;5113785;28;20388;-35
2021/04/12 01:05:17;;;;;;;6.60;2.60;;;2.50;80.20;;;;;;5114011;28;20024;-36
2021/04/12 01:08:32;;;;;;;13.13;3.13;;;2.50;80.30;;;;;;5113678;28;20028;-36
2021/04/12 01:11:24;;;;;;;4.80;3.67;;;2.60;79.90;;;;;;5109625;28;20034;-36
2021/04/12 01:13:49;;;;;;;8.65;2.75;;;2.60;79.90;;;;;;5107680;28;20489;-36
2021/04/12 01:16:30;;;;;;;11.70;4.93;;;2.50;79.90;;;;;;5113786;28;20019;-36
2021/04/12 01:19:46;;;;;;;6.93;2.83;;;2.60;80.00;;;;;;5113751;28;20049;-36
2021/04/12 01:22:53;;;;;;;5.45;3.13;;;2.50;80.00;;;;;;5113518;28;20521;-36
2021/04/12 01:25:47;;;;;;;5.85;3.20;;;2.50;80.00;;;;;;5113422;28;20019;-36
2021/04/12 01:28:18;;;;;;;8.63;3.10;;;2.50;80.00;;;;;;5112438;28;20020;-36
2021/04/12 01:31:16;;;;;;;6.55;2.67;;;2.60;79.50;;;;;;5113907;28;20440;-36
2021/04/12 01:34:24;;;;;;;4.60;2.50;;;2.50;80.20;;;;;;5114183;28;20402;-36
2021/04/12 01:37:11;;;;;;;8.50;2.70;;;2.50;80.20;;;;;;5112166;28;20360;-36
2021/04/12 01:40:03;;;;;;;6.93;2.58;;;2.60;79.30;;;;;;5113701;28;20023;-36
2021/04/12 01:42:56;;;;;;;7.78;3.00;;;2.40;80.30;;;;;;5107862;28;20035;-36
2021/04/12 01:45:56;;;;;;;6.18;2.90;;;2.50;80.10;;;;;;5113864;28;20055;-36
2021/04/12 01:49:07;;;;;;;4.43;3.15;;;2.60;80.20;;;;;;5076080;28;20056;-36
2021/04/12 01:52:17;;;;;;;12.53;2.83;;;2.50;80.50;;;;;;5072180;28;20094;-36
2021/04/12 01:55:01;;;;;;;12.50;3.40;;;2.40;80.80;;;;;;5072909;28;20031;-36
2021/04/12 01:57:45;;;;;;;4.65;3.17;;;2.20;81.50;;;;;;5073412;28;20126;-36
2021/04/12 02:00:35;;;;;;;5.45;3.17;;;2.20;81.70;;;;;;5072885;28;20020;-36
2021/04/12 02:03:19;;;;;;;5.65;3.20;;;2.10;82.20;;;;;;5072771;28;20017;-36
2021/04/12 02:06:01;;;;;;;7.72;4.00;;;2.10;82.70;;;;;;5071598;28;20074;-35
2021/04/12 02:08:48;;;;;;;5.00;4.38;;;2.00;83.10;;;;;;5073330;28;20052;-35
2021/04/12 02:11:23;;;;;;;7.70;3.08;;;1.90;83.30;;;;;;5073263;28;20035;-35
2021/04/12 02:14:18;;;;;;;12.40;4.30;;;1.90;83.60;;;;;;5073039;28;20047;-36
2021/04/12 02:16:58;;;;;;;9.35;3.97;;;1.90;83.70;;;;;;5067136;28;20040;-36
2021/04/12 02:19:45;;;;;;;11.50;3.88;;;1.80;84.20;;;;;;5072697;28;20033;-36
2021/04/12 02:22:29;;;;;;;9.20;4.05;;;1.80;84.00;;;;;;5072411;28;20060;-36
2021/04/12 02:25:32;;;;;;;7.00;3.95;;;1.90;83.90;;;;;;5071311;28;20031;-36
2021/04/12 02:28:13;;;;;;;5.80;3.90;;;2.00;83.40;;;;;;5071109;28;20104;-36
2021/04/12 02:30:51;;;;;;;;;;;2.10;83.10;;;;;;5072765;28;20070;-36
2021/04/12 02:33:24;;;;;;;11.75;3.67;;;2.10;83.00;;;;;;5072395;28;20356;-36
2021/04/12 02:36:05;;;;;;;7.45;3.60;;;2.10;83.50;;;;;;5072715;28;20495;-36
2021/04/12 02:38:50;;;;;;;10.43;3.63;;;2.00;84.00;;;;;;5072499;28;20029;-36
2021/04/12 02:41:43;;;;;;;8.00;3.90;;;1.90;83.80;;;;;;5072527;28;20029;-36
2021/04/12 02:44:33;;;;;;;7.40;4.18;;;1.90;84.00;;;;;;5072455;28;20100;-36
2021/04/12 02:47:36;;;;;;;8.65;4.15;;;1.80;84.50;;;;;;5072547;28;20024;-35
2021/04/12 02:50:13;;;;;;;6.72;4.28;;;1.80;84.60;;;;;;5083887;28;20044;-36
2021/04/12 02:53:01;;;;;;;10.63;4.30;;;1.80;84.60;;;;;;5112915;28;20523;-35
2021/04/12 02:55:51;;;;;;;6.78;4.15;;;1.80;84.80;;;;;;5112522;28;20032;-35
2021/04/12 02:58:28;;;;;;;6.07;2.92;;;1.70;85.20;;;;;;5116839;28;20022;-35
2021/04/12 03:01:03;;;;;;;9.93;4.20;;;1.60;85.40;;;;;;5115181;28;20026;-35
2021/04/12 03:03:43;;;;;;;10.45;4.47;;;1.60;85.60;;;;;;5116852;28;20027;-35
2021/04/12 03:06:40;;;;;;;8.52;4.70;;;1.70;85.20;;;;;;5116836;28;20020;-36
2021/04/12 03:09:27;;;;;;;15.80;5.00;;;1.80;85.00;;;;;;5116315;28;20121;-36
2021/04/12 03:11:56;;;;;;;7.40;4.45;;;1.70;85.10;;;;;;5116312;28;20031;-35
2021/04/12 03:14:55;;;;;;;6.70;4.50;;;1.80;85.90;;;;;;5116791;28;20118;-35
2021/04/12 03:17:40;;;;;;;13.23;6.13;;;1.80;85.40;;;;;;5116440;28;20026;-35
2021/04/12 03:20:35;;;;;;;11.88;5.85;;;1.80;85.40;;;;;;5116132;28;20106;-35
2021/04/12 03:23:23;;;;;;;8.73;4.70;;;1.80;85.00;;;;;;5116261;28;20024;-35
2021/04/12 03:26:10;;;;;;;13.70;5.53;;;1.40;86.10;;;;;;5116312;27;20020;-35
2021/04/12 03:28:50;;;;;;;9.07;5.18;;;1.50;86.40;;;;;;5116740;28;20363;-35
2021/04/12 03:31:35;;;;;;;9.65;5.38;;;1.40;86.00;;;;;;5115963;28;20054;-35
2021/04/12 03:34:13;;;;;;;13.30;5.15;;;1.20;86.90;;;;;;5116186;28;20121;-40
2021/04/12 03:36:41;;;;;;;9.70;6.03;;;1.30;87.10;;;;;;5116098;28;20034;-35
2021/04/12 03:39:28;;;;;;;11.05;5.97;;;1.30;86.70;;;;;;5115771;28;20087;-37
2021/04/12 03:42:31;;;;;;;10.38;6.57;;;1.30;86.90;;;;;;5115593;28;20081;-36
2021/04/12 03:45:06;;;;;;;9.77;6.00;;;1.20;87.00;;;;;;5115237;28;20020;-35
2021/04/12 03:47:46;;;;;;;14.93;6.35;;;1.20;87.00;;;;;;5116235;28;20046;-35
2021/04/12 03:50:25;;;;;;;16.00;7.72;;;1.20;86.90;;;;;;5115481;28;20032;-36
2021/04/12 03:53:12;;;;;;;13.07;7.20;;;1.20;86.90;;;;;;5115822;28;20464;-35
2021/04/12 03:56:03;;;;;;;12.98;7.05;;;1.10;87.40;;;;;;5115755;28;20463;-36
2021/04/12 03:58:46;;;;;;;23.27;8.95;;;1.00;87.50;;;;;;5114049;28;20161;-36
2021/04/12 04:01:15;;;;;;;12.02;7.35;;;1.10;87.70;;;;;;5115644;28;20031;-36
2021/04/12 04:03:45;;;;;;;12.55;6.50;;;1.10;87.40;;;;;;5115299;28;20031;-36
2021/04/12 04:06:22;;;;;;;10.45;7.28;;;1.00;87.40;;;;;;5115144;28;20020;-36
2021/04/12 04:09:16;;;;;;;24.02;8.63;;;1.10;87.40;;;;;;5114944;28;20077;-36
2021/04/12 04:12:11;;;;;;;17.05;7.88;;;1.10;87.50;;;;;;5115531;28;20072;-36
2021/04/12 04:15:12;;;;;;;13.60;8.48;;;1.10;87.40;;;;;;5115143;28;20024;-36
2021/04/12 04:18:05;;;;;;;14.60;8.25;;;1.10;87.40;;;;;;5115418;28;20486;-36
2021/04/12 04:20:49;;;;;;;12.90;7.88;;;1.10;87.50;;;;;;5114903;28;20020;-36
2021/04/12 04:23:45;;;;;;;12.65;7.03;;;1.00;87.80;;;;;;5114800;28;20038;-35
2021/04/12 04:26:42;;;;;;;20.88;9.68;;;1.00;87.70;;;;;;5115062;28;20031;-35
2021/04/12 04:29:25;;;;;;;14.50;8.60;;;1.00;87.90;;;;;;5114949;28;20034;-36
2021/04/12 04:32:17;;;;;;;16.48;8.65;;;0.90;88.00;;;;;;5115079;28;20022;-36
2021/04/12 04:35:25;;;;;;;11.68;7.95;;;0.80;88.20;;;;;;5115006;28;20463;-36
2021/04/12 04:37:54;;;;;;;13.82;9.52;;;0.90;88.30;;;;;;5114959;28;20038;-36
2021/04/12 04:40:48;;;;;;;14.27;8.20;;;0.80;88.60;;;;;;5114896;28;20019;-35
2021/04/12 04:43:23;;;;;;;12.13;8.05;;;0.80;88.80;;;;;;5114481;28;20032;-35
2021/04/12 04:46:00;;;;;;;11.15;7.43;;;0.80;88.90;;;;;;5114761;28;20011;-35
2021/04/12 04:48:47;;;;;;;10.48;7.50;;;0.80;89.10;;;;;;5114396;28;20031;-35
2021/04/12 04:51:35;;;;;;;13.85;7.60;;;0.80;89.00;;;;;;5114253;28;20067;-35
2021/04/12 04:54:15;;;;;;;16.42;9.65;;;0.80;89.20;;;;;;5114503;28;20050;-35
2021/04/12 04:56:58;;;;;;;17.38;8.15;;;0.80;88.90;;;;;;5114559;28;20110;-35
2021/04/12 04:59:45;;;;;;;15.23;9.25;;;0.90;88.50;;;;;;5114624;28;20019;-35
2021/04/12 05:02:30;;;;;;;12.95;9.60;;;0.90;88.40;;;;;;5114226;28;20084;-35
2021/04/12 05:05:10;;;;;;;18.50;8.32;;;0.80;88.50;;;;;;5114069;28;20020;-36
2021/04/12 05:07:55;;;;;;;;;;;0.80;88.70;;;;;;5114814;27;20386;-35
2021/04/12 05:10:40;;;;;;;18.15;9.93;;;0.80;88.80;;;;;;5113976;28;19911;-35
2021/04/12 05:13:12;;;;;;;19.17;9.77;;;0.90;88.70;;;;;;5112939;28;20522;-35
2021/04/12 05:15:47;;;;;;;20.83;10.48;;;0.90;88.80;;;;;;5114013;28;20026;-35
2021/04/12 05:18:21;;;;;;;18.80;9.60;;;0.90;88.70;;;;;;5113914;28;20079;-35
2021/04/12 05:21:00;;;;;;;20.50;10.88;;;1.00;88.30;;;;;;5114415;28;20368;-35
2021/04/12 05:23:45;;;;;;;15.75;8.85;;;0.90;88.80;;;;;;5112729;28;20028;-35
2021/04/12 05:26:35;;;;;;;15.77;9.10;;;1.00;88.60;;;;;;5112521;28;20066;-38
2021/04/12 05:29:09;;;;;;;12.73;8.25;;;1.00;88.80;;;;;;5114514;28;20510;-36
2021/04/12 05:31:44;;;;;;;18.48;10.32;;;1.00;88.60;;;;;;5114093;28;20467;-35
2021/04/12 05:34:22;;;;;;;13.73;8.45;;;0.80;89.00;;;;;;5114320;27;20106;-35
2021/04/12 05:37:13;;;;;;;14.10;10.27;;;0.80;89.30;;;;;;5113873;28;20057;-35
2021/04/12 05:40:03;;;;;;;16.13;8.45;;;0.80;89.30;;;;;;5113805;28;20053;-36
2021/04/12 05:42:39;;;;;;;20.45;10.50;;;0.90;89.40;;;;;;5113578;28;20095;-36
2021/04/12 05:45:19;;;;;;;17.17;9.68;;;0.90;89.10;;;;;;5113819;28;20378;-35
2021/04/12 05:47:58;;;;;;;16.55;9.48;;;1.00;88.90;;;;;;5113639;28;20027;-36
2021/04/12 05:50:45;;;;;;;23.33;10.50;;;1.20;88.30;;;;;;5113602;28;20058;-36
2021/04/12 05:53:23;;;;;;;24.45;11.10;;;1.20;88.50;;;;;;5112105;28;20028;-36
2021/04/12 05:56:21;;;;;;;21.48;9.93;;;1.20;88.50;;;;;;5113643;28;20191;-36
2021/04/12 05:59:02;;;;;;;16.80;8.73;;;1.30;88.20;;;;;;5113553;28;20123;-35
2021/04/12 06:02:01;;;;;;;16.70;9.25;;;1.50;87.80;;;;;;5113723;28;20028;-35
2021/04/12 06:04:49;;;;;;;11.05;8.50;;;1.50;87.80;;;;;;5114046;28;20374;-36
2021/04/12 06:07:26;;;;;;;15.32;7.65;;;1.60;87.60;;;;;;5113472;28;20027;-35
2021/04/12 06:10:36;;;;;;;12.32;7.93;;;1.90;87.30;;;;;;5114088;28;20056;-37
2021/04/12 06:13:21;;;;;;;13.65;8.93;;;2.00;86.80;;;;;;5071141;28;20400;-37
2021/04/12 06:15:49;;;;;;;11.10;6.60;;;2.00;86.90;;;;;;5070698;28;20415;-35
2021/04/12 06:18:37;;;;;;;16.23;7.53;;;2.10;86.80;;;;;;5098267;28;20028;-35
2021/04/12 06:21:31;;;;;;;11.93;7.90;;;2.30;86.50;;;;;;5113191;28;20023;-35
2021/04/12 06:24:07;;;;;;;16.25;8.70;;;2.50;85.70;;;;;;5111925;28;20042;-35
2021/04/12 06:27:05;;;;;;;20.83;8.30;;;2.80;84.70;;;;;;5111973;28;20300;-35
2021/04/12 06:29:45;;;;;;;11.05;7.20;;;2.90;84.10;;;;;;5104710;28;20034;-35
2021/04/12 06:32:59;;;;;;;13.18;6.80;;;2.90;83.90;;;;;;5117057;28;20108;-36
2021/04/12 06:36:09;;;;;;;13.18;7.07;;;2.90;84.80;;;;;;5079074;27;20314;-35
2021/04/12 06:38:53;;;;;;;10.38;5.53;;;3.00;84.20;;;;;;5096477;28;20073;-35
2021/04/12 06:41:51;;;;;;;15.07;6.15;;;3.00;83.20;;;;;;5116499;28;20063;-35
2021/04/12 06:44:35;;;;;;;12.95;6.78;;;3.30;82.90;;;;;;5116805;28;20118;-35
2021/04/12 06:47:11;;;;;;;9.55;5.90;;;3.60;82.20;;;;;;5116972;28;20035;-37
2021/04/12 06:49:55;;;;;;;12.75;7.53;;;3.30;82.60;;;;;;5116722;28;20452;-36
2021/04/12 06:52:30;;;;;;;13.02;6.25;;;3.40;83.00;;;;;;5116796;28;20026;-35
2021/04/12 06:55:20;;;;;;;10.05;5.78;;;3.30;83.10;;;;;;5116807;28;20157;-35
2021/04/12 06:58:23;;;;;;;9.82;6.22;;;3.60;82.10;;;;;;5116614;28;20383;-35
2021/04/12 07:01:26;;;;;;;14.98;6.50;;;3.50;82.20;;;;;;5116165;28;20098;-36
2021/04/12 07:04:10;;;;;;;10.95;6.28;;;3.60;82.30;;;;;;5116268;28;20032;-36
2021/04/12 07:07:09;;;;;;;10.18;7.03;;;3.80;81.50;;;;;;5115152;28;20066;-35
2021/04/12 07:09:56;;;;;;;17.42;6.78;;;4.00;81.00;;;;;;5116158;28;20032;-37
2021/04/12 07:12:41;;;;;;;16.70;6.72;;;3.80;80.70;;;;;;5116133;28;20383;-38
2021/04/12 07:15:13;;;;;;;12.10;7.13;;;3.70;81.30;;;;;;5116305;28;20520;-37
2021/04/12 07:18:16;;;;;;;8.55;5.85;;;3.90;81.30;;;;;;5116114;27;20028;-36
2021/04/12 07:21:11;;;;;;;7.70;5.72;;;4.20;80.10;;;;;;5115667;28;20023;-36
2021/04/12 07:24:12;;;;;;;10.38;6.68;;;4.20;80.00;;;;;;5115794;28;20106;-36
2021/04/12 07:27:06;;;;;;;20.52;6.85;;;4.80;78.20;;;;;;5115964;28;20536;-37
2021/04/12 07:29:49;;;;;;;14.15;5.38;;;4.80;77.60;;;;;;5116145;28;20101;-36
2021/04/12 07:32:33;;;;;;;15.85;6.85;;;4.00;80.30;;;;;;5114931;28;20031;-36
2021/04/12 07:35:05;;;;;;;14.40;6.30;;;4.30;79.40;;;;;;5115776;28;20024;-36
2021/04/12 07:38:09;;;;;;;16.20;7.70;;;3.90;80.30;;;;;;5115369;28;20027;-36
2021/04/12 07:40:56;;;;;;;12.40;6.75;;;4.30;79.80;;;;;;5102940;28;20498;-37
2021/04/12 07:43:40;;;;;;;10.48;6.47;;;4.70;78.00;;;;;;5115752;28;20019;-37
2021/04/12 07:46:26;;;;;;;13.10;6.68;;;4.70;77.60;;;;;;5115625;28;20024;-41
2021/04/12 07:49:27;;;;;;;12.82;6.28;;;4.80;78.10;;;;;;5115654;28;20023;-37
2021/04/12 07:52:14;;;;;;;7.00;5.57;;;5.00;77.10;;;;;;5114100;28;20048;-36
2021/04/12 07:55:01;;;;;;;13.60;6.18;;;5.00;76.00;;;;;;5115232;28;20740;-36
2021/04/12 07:58:01;;;;;;;9.55;6.10;;;5.10;75.70;;;;;;5115006;28;20060;-36
2021/04/12 08:00:48;;;;;;;8.25;6.00;;;4.70;77.60;;;;;;5115521;28;20110;-36
2021/04/12 08:03:50;;;;;;;13.68;7.72;;;5.10;76.90;;;;;;5114939;28;20112;-37
2021/04/12 08:06:54;;;;;;;19.42;7.00;;;4.80;77.80;;;;;;5114907;28;20026;-38
2021/04/12 08:10:00;;;;;;;10.60;6.50;;;5.40;76.30;;;;;;5114367;28;20047;-36
2021/04/12 08:12:53;;;;;;;9.07;5.55;;;5.70;74.90;;;;;;5114782;28;20027;-36
2021/04/12 08:16:03;;;;;;;19.92;5.50;;;5.60;74.00;;;;;;5114555;28;20029;-36
2021/04/12 08:19:02;;;;;;;10.15;5.15;;;5.60;73.40;;;;;;5114874;28;20027;-36
2021/04/12 08:21:53;;;;;;;13.13;4.90;;;5.90;72.40;;;;;;5112998;28;20047;-36
2021/04/12 08:24:43;;;;;;;6.18;4.57;;;6.20;71.10;;;;;;5114542;28;20367;-36
2021/04/12 08:27:36;;;;;;;11.88;4.95;;;5.60;72.30;;;;;;5114644;28;20039;-36
2021/04/12 08:30:33;;;;;;;12.93;7.05;;;6.30;71.20;;;;;;5114546;28;20479;-36
2021/04/12 08:33:33;;;;;;;10.43;6.53;;;6.20;70.50;;;;;;5114228;28;20047;-36
2021/04/12 08:36:17;;;;;;;12.65;6.80;;;6.00;71.50;;;;;;5115180;28;20073;-37
2021/04/12 08:39:14;;;;;;;6.38;4.75;;;6.10;70.70;;;;;;5114825;28;20107;-35
2021/04/12 08:42:17;;;;;;;7.28;4.18;;;6.60;69.50;;;;;;5115205;28;20345;-37
2021/04/12 08:45:07;;;;;;;10.23;4.75;;;7.10;67.30;;;;;;5112740;28;20088;-35
2021/04/12 08:48:15;;;;;;;13.18;5.03;;;6.30;70.30;;;;;;5113682;28;20028;-35
2021/04/12 08:51:01;;;;;;;9.00;4.30;;;6.40;69.40;;;;;;5113462;28;20051;-37
2021/04/12 08:54:04;;;;;;;5.90;4.50;;;5.90;70.30;;;;;;5113482;28;20136;-37
2021/04/12 08:56:54;;;;;;;6.35;4.40;;;6.30;68.90;;;;;;5114064;28;20020;-36
2021/04/12 08:59:20;;;;;;;9.38;4.47;;;6.50;68.60;;;;;;5114360;28;20039;-35
2021/04/12 09:02:04;;;;;;;9.23;4.57;;;6.30;67.60;;;;;;5114534;28;20467;-36
2021/04/12 09:04:59;;;;;;;8.93;4.45;;;6.10;68.60;;;;;;5113533;28;20016;-36
2021/04/12 09:08:03;;;;;;;12.48;4.63;;;6.50;67.30;;;;;;5113688;28;20024;-36
2021/04/12 09:10:46;;;;;;;11.30;4.65;;;6.60;66.60;;;;;;5113628;28;20047;-35
2021/04/12 09:13:59;;;;;;;6.10;4.40;;;6.70;65.60;;;;;;5095752;28;20020;-36
2021/04/12 09:16:28;;;;;;;8.43;4.80;;;7.30;63.00;;;;;;5076114;28;20615;-37
2021/04/12 09:19:29;;;;;;;14.60;5.68;;;7.20;63.70;;;;;;5113816;28;20118;-36
2021/04/12 09:22:24;;;;;;;12.15;5.57;;;6.60;66.50;;;;;;5113875;28;20383;-36
2021/04/12 09:25:24;;;;;;;9.98;4.80;;;6.90;64.60;;;;;;5114385;28;20026;-37
2021/04/12 09:27:56;;;;;;;4.80;2.65;;;6.50;64.50;;;;;;5113730;28;20023;-37
2021/04/12 09:30:33;;;;;;;2.85;1.90;;;6.60;61.70;;;;;;5113982;28;20026;-36
2021/04/12 09:33:37;;;;;;;6.07;2.70;;;6.40;62.10;;;;;;5113841;28;20064;-37
2021/04/12 09:36:06;;;;;;;9.30;2.92;;;7.30;61.20;;;;;;5113279;28;20023;-36
2021/04/12 09:38:55;;;;;;;5.47;1.92;;;8.00;58.10;;;;;;5113102;28;20034;-36
2021/04/12 09:41:58;;;;;;;6.10;2.88;;;7.10;59.20;;;;;;5113069;28;20034;-35
2021/04/12 09:44:52;;;;;;;3.30;1.15;;;6.10;63.90;;;;;;5113520;28;20028;-35
2021/04/12 09:47:17;;;;;;;12.10;1.90;;;5.30;65.30;;;;;;5113934;28;20069;-37
2021/04/12 09:50:16;;;;;;;4.90;1.73;;;5.20;67.80;;;;;;5113372;28;20460;-36
2021/04/12 09:52:48;;;;;;;2.50;1.58;;;5.40;67.20;;;;;;5113496;28;20495;-36
2021/04/12 09:55:39;;;;;;;3.47;1.73;;;5.60;66.50;;;;;;5112733;28;20027;-37
2021/04/12 09:58:52;;;;;;;1.70;1.15;;;6.80;64.70;;;;;;5113737;28;20043;-37
2021/04/12 10:01:42;;;;;;;4.75;1.70;;;7.80;59.10;;;;;;5113111;28;20412;-37
2021/04/12 10:04:11;;;;;;;4.68;1.75;;;8.00;57.20;;;;;;5112261;28;20020;-37
2021/04/12 10:06:42;;;;;;;3.78;1.70;;;7.40;56.90;;;;;;5117777;28;20508;-37
2021/04/12 10:09:10;;;;;;;5.68;2.22;;;7.00;58.40;;;;;;5118038;28;20051;-36
2021/04/12 10:11:48;;;;;;;2.22;2.00;;;6.30;59.80;;;;;;5117449;28;20027;-36
2021/04/12 10:14:17;;;;;;;4.32;2.08;;;6.30;61.40;;;;;;5117533;28;20395;-38
2021/04/12 10:17:11;;;;;;;4.80;2.60;;;7.10;57.90;;;;;;5117078;28;20024;-37
2021/04/12 10:19:48;;;;;;;2.85;1.55;;;8.90;54.40;;;;;;5117364;28;20034;-37
2021/04/12 10:22:16;;;;;;;2.42;1.70;;;9.70;48.00;;;;;;5117187;28;20028;-38
2021/04/12 10:24:51;;;;;;;3.75;2.00;;;9.80;47.70;;;;;;5116768;28;20051;-37
2021/04/12 10:27:36;;;;;;;6.35;1.70;;;8.40;50.90;;;;;;5116548;28;20125;-37
2021/04/12 10:30:20;;;;;;;2.10;1.80;;;8.60;51.10;;;;;;5116850;28;20067;-37
2021/04/12 10:33:04;;;;;;;3.10;1.75;;;8.80;51.80;;;;;;5117359;28;20034;-37
2021/04/12 10:35:53;;;;;;;2.13;1.40;;;10.50;47.30;;;;;;5116844;28;20062;-37
2021/04/12 10:38:36;;;;;;;4.80;1.92;;;11.10;44.90;;;;;;5116806;28;20024;-38
2021/04/12 10:41:29;;;;;;;2.42;1.50;;;12.60;42.30;;;;;;5117846;28;20035;-37
2021/04/12 10:43:55;;;;;;;4.85;1.98;;;11.20;44.70;;;;;;5116813;28;20020;-37
2021/04/12 10:46:28;;;;;;;4.10;1.98;;;9.90;45.50;;;;;;5117107;28;20024;-37
2021/04/12 10:49:10;;;;;;;10.27;3.90;;;9.30;49.60;;;;;;5116868;28;20034;-37
2021/04/12 10:52:04;;;;;;;1.58;1.48;;;10.40;44.00;;;;;;5116667;28;20104;-37
2021/04/12 10:54:46;;;;;;;5.72;2.60;;;10.20;45.40;;;;;;5116714;27;20192;-37
2021/04/12 10:57:50;;;;;;;6.85;2.58;;;9.20;48.00;;;;;;5117318;28;20102;-37
2021/04/12 11:00:34;;;;;;;3.47;2.05;;;9.00;49.50;;;;;;5116239;28;20375;-37
2021/04/12 11:03:05;;;;;;;4.63;2.40;;;9.00;50.50;;;;;;5115535;28;20024;-37
2021/04/12 11:05:31;;;;;;;3.17;2.33;;;8.60;52.50;;;;;;5116870;28;20452;-37
2021/04/12 11:08:29;;;;;;;3.10;1.55;;;8.50;52.60;;;;;;5116331;28;20047;-37
2021/04/12 11:11:10;;;;;;;2.17;1.25;;;8.40;46.60;;;;;;5114978;28;20102;-38
2021/04/12 11:13:44;;;;;;;;;;;7.60;56.00;;;;;;5115264;28;20521;-37
2021/04/12 11:16:27;;;;;;;2.88;0.98;;;7.20;59.80;;;;;;5115388;28;19911;-37
2021/04/12 11:19:07;;;;;;;3.80;2.30;;;6.80;61.50;;;;;;5116052;28;20031;-37
2021/04/12 11:21:44;;;;;;;3.75;0.75;;;7.10;61.80;;;;;;5116177;28;20102;-37
2021/04/12 11:24:41;;;;;;;1.58;0.90;;;7.00;62.70;;;;;;5115330;28;20038;-37
2021/04/12 11:27:40;;;;;;;0.90;0.73;;;6.50;64.40;;;;;;5115880;28;20023;-38
2021/04/12 11:30:31;;;;;;;0.75;0.70;;;6.00;63.50;;;;;;5115868;28;20128;-37
2021/04/12 11:33:31;;;;;;;3.30;0.75;;;6.20;63.90;;;;;;5114724;28;20027;-36
2021/04/12 11:36:00;;;;;;;2.10;1.35;;;6.40;62.40;;;;;;5115901;28;20031;-37
2021/04/12 11:38:31;;;;;;;4.38;1.27;;;6.40;60.80;;;;;;5116013;28;20023;-37
2021/04/12 11:41:11;;;;;;;5.50;1.38;;;6.20;60.50;;;;;;5115810;28;20020;-37
2021/04/12 11:43:41;;;;;;;1.30;0.85;;;6.00;62.00;;;;;;5115736;28;20439;-37
2021/04/12 11:46:34;;;;;;;0.60;0.60;;;5.80;62.30;;;;;;5115894;28;20023;-38
2021/04/12 11:49:19;;;;;;;1.35;1.00;;;5.80;60.60;;;;;;5114071;28;20034;-37
2021/04/12 11:51:54;;;;;;;1.13;0.98;;;5.60;60.30;;;;;;5115032;28;20044;-38
2021/04/12 11:54:54;;;;;;;4.88;0.82;;;5.30;61.20;;;;;;5116371;27;20080;-36
2021/04/12 11:57:26;;;;;;;2.55;0.88;;;5.30;62.20;;;;;;5115416;28;20068;-36
2021/04/12 12:00:11;;;;;;;0.82;0.82;;;6.00;60.70;;;;;;5115507;28;20020;-37
2021/04/12 12:02:42;;;;;;;2.20;1.45;;;6.30;61.90;;;;;;5115007;28;20024;-37
2021/04/12 12:05:11;;;;;;;4.03;1.17;;;7.20;60.90;;;;;;5114808;28;20432;-37
2021/04/12 12:07:44;;;;;;;1.70;1.33;;;7.50;58.20;;;;;;5115366;28;20031;-37
2021/04/12 12:10:24;;;;;;;1.90;1.30;;;7.60;59.30;;;;;;5114788;28;20051;-36
2021/04/12 12:13:18;;;;;;;3.38;1.52;;;7.80;59.00;;;;;;5114856;28;20030;-36
2021/04/12 12:16:07;;;;;;;1.75;1.40;;;7.60;59.00;;;;;;5115187;28;20035;-36
2021/04/12 12:19:17;;;;;;;3.55;2.53;;;8.20;57.00;;;;;;5107288;28;20032;-42
2021/04/12 12:21:47;;;;;;;3.53;1.57;;;8.50;56.60;;;;;;5094398;28;20050;-37
2021/04/12 12:24:41;;;;;;;2.35;1.92;;;8.00;57.80;;;;;;5114538;28;20051;-36
2021/04/12 12:27:25;;;;;;;5.15;2.40;;;8.30;57.60;;;;;;5114064;28;20024;-36
2021/04/12 12:29:59;;;;;;;3.95;2.08;;;7.30;60.20;;;;;;5113772;28;20096;-37
2021/04/12 12:32:34;;;;;;;5.53;2.28;;;8.20;57.40;;;;;;5114780;28;20020;-36
2021/04/12 12:35:28;;;;;;;3.97;2.17;;;7.20;58.80;;;;;;5114712;27;20020;-36
2021/04/12 12:38:19;;;;;;;4.20;2.63;;;7.40;59.70;;;;;;5113326;28;20031;-38
2021/04/12 12:41:02;;;;;;;3.83;2.42;;;6.80;61.90;;;;;;5114392;28;20106;-38
2021/04/12 12:43:35;;;;;;;3.42;2.28;;;8.30;58.00;;;;;;5114082;28;20028;-38
2021/04/12 12:46:11;;;;;;;4.30;2.42;;;8.20;56.60;;;;;;5114541;28;20038;-37
2021/04/12 12:48:49;;;;;;;4.65;2.83;;;7.80;57.80;;;;;;5111435;27;20664;-37
2021/04/12 12:51:23;;;;;;;3.42;2.22;;;8.90;54.20;;;;;;5110997;28;20130;-38
2021/04/12 12:53:52;;;;;;;5.25;2.55;;;9.30;51.70;;;;;;5111010;28;20077;-37
2021/04/12 12:56:29;;;;;;;4.32;2.58;;;8.30;53.20;;;;;;5111218;28;20027;-38
2021/04/12 12:59:01;;;;;;;4.53;2.60;;;9.30;51.10;;;;;;5110531;28;20395;-37
2021/04/12 13:01:36;;;;;;;4.03;2.35;;;9.10;52.10;;;;;;5110661;28;20040;-36
2021/04/12 13:04:26;;;;;;;9.38;3.60;;;8.80;52.90;;;;;;5110584;28;20074;-41
2021/04/12 13:06:55;;;;;;;4.70;2.63;;;10.80;48.50;;;;;;5110215;28;20016;-38
2021/04/12 13:09:31;;;;;;;5.07;2.55;;;10.50;47.50;;;;;;5126095;28;20062;-36
2021/04/12 13:12:08;;;;;;;3.90;2.50;;;10.10;48.50;;;;;;5125927;28;20031;-36
2021/04/12 13:14:40;;;;;;;2.33;2.13;;;8.80;51.10;;;;;;5109472;28;20035;-37
2021/04/12 13:17:34;;;;;;;5.57;3.45;;;9.00;49.50;;;;;;5125806;28;20059;-37
2021/04/12 13:20:09;;;;;;;3.50;2.35;;;7.80;52.40;;;;;;5110471;28;20107;-36
2021/04/12 13:22:41;;;;;;;4.05;3.53;;;7.50;53.60;;;;;;5125881;28;20023;-37
2021/04/12 13:25:28;;;;;;;7.57;3.05;;;8.10;52.10;;;;;;5109077;28;20066;-36
2021/04/12 13:28:14;;;;;;;6.10;3.05;;;8.20;51.10;;;;;;5110052;28;20023;-37
2021/04/12 13:31:02;;;;;;;3.90;2.22;;;8.30;51.10;;;;;;5109289;28;20115;-37
2021/04/12 13:33:35;;;;;;;2.53;2.00;;;8.50;50.80;;;;;;5109437;28;20019;-36
2021/04/12 13:36:10;;;;;;;5.35;2.08;;;9.00;49.60;;;;;;5109855;28;20024;-37
2021/04/12 13:38:39;;;;;;;4.30;2.17;;;8.90;48.10;;;;;;5110174;28;20024;-36
2021/04/12 13:41:10;;;;;;;4.40;2.20;;;9.00;48.50;;;;;;5109716;28;20419;-37
2021/04/12 13:43:41;;;;;;;4.30;2.45;;;9.30;47.50;;;;;;5108767;28;20032;-38
2021/04/12 13:46:22;;;;;;;3.67;2.33;;;9.30;47.60;;;;;;5109593;28;20111;-37
2021/04/12 13:49:12;;;;;;;2.92;1.90;;;8.40;50.50;;;;;;5109934;28;20107;-38
2021/04/12 13:51:43;;;;;;;2.43;2.03;;;9.00;50.00;;;;;;5109289;28;20031;-37
2021/04/12 13:54:31;;;;;;;5.43;2.00;;;9.30;50.10;;;;;;5109738;28;20016;-37
2021/04/12 13:57:18;;;;;;;7.38;3.03;;;8.40;48.70;;;;;;5109987;28;20028;-37
2021/04/12 13:59:51;;;;;;;1.85;1.52;;;8.30;50.40;;;;;;5098336;28;20126;-37
2021/04/12 14:02:29;;;;;;;4.47;2.55;;;8.00;50.20;;;;;;5095731;28;20023;-37
2021/04/12 14:05:03;;;;;;;4.47;2.17;;;8.00;51.20;;;;;;5095606;28;20024;-37
2021/04/12 14:07:52;;;;;;;5.78;2.22;;;8.10;50.30;;;;;;5095579;28;20050;-37
2021/04/12 14:10:27;;;;;;;6.82;2.47;;;8.20;50.20;;;;;;5095537;28;20052;-37
2021/04/12 14:12:55;;;;;;;3.35;2.88;;;7.70;52.50;;;;;;5095441;28;20016;-37
2021/04/12 14:15:52;;;;;;;2.70;1.90;;;7.90;52.60;;;;;;5095411;28;20494;-37
2021/04/12 14:18:36;;;;;;;4.72;2.47;;;8.00;52.10;;;;;;5094784;28;20036;-36
2021/04/12 14:21:10;;;;;;;3.72;2.35;;;8.30;51.50;;;;;;5094023;28;20028;-37
2021/04/12 14:23:41;;;;;;;5.55;2.70;;;8.40;49.60;;;;;;5095391;28;20028;-37
2021/04/12 14:26:13;;;;;;;3.65;2.17;;;8.30;49.70;;;;;;5096282;28;20478;-37
2021/04/12 14:28:51;;;;;;;4.78;3.40;;;8.20;50.20;;;;;;5095241;28;20066;-38